Time;durP1;ratioP1;P1;durP2;ratioP2;P2;SDS_P1;SDS_P2;PMS_P1;PMS_P2;Temp;Humidity;BMP_temperature;BMP_pressure;BME280_temperature;BME280_humidity;BME280_pressure;Samples;Min_cycle;Max_cycle;Signal;HPM_P1;HPM_P2
2021/07/05 00:01:28;;;;;;;0.10;0.10;;;;;;;16.83;69.33;99561.50;4820386;29;20038;-75
2021/07/05 00:03:54;;;;;;;0.10;0.10;;;;;;;16.79;69.51;99562.94;4821953;29;20074;-73
2021/07/05 00:06:20;;;;;;;0.10;0.10;;;;;;;16.78;69.50;99562.09;4820061;29;20055;-75
2021/07/05 00:08:46;;;;;;;0.10;0.10;;;;;;;16.79;69.41;99565.66;4820400;29;20078;-73
2021/07/05 00:11:11;;;;;;;0.10;0.10;;;;;;;16.76;69.46;99563.31;4821423;29;20080;-74
2021/07/05 00:13:37;;;;;;;0.10;0.10;;;;;;;16.71;69.42;99566.59;4822934;29;20026;-74
2021/07/05 00:16:03;;;;;;;0.10;0.10;;;;;;;16.67;69.71;99576.19;4820381;29;20043;-75
2021/07/05 00:18:29;;;;;;;0.10;0.10;;;;;;;16.63;69.67;99567.53;4818083;29;20054;-75
2021/07/05 00:20:55;;;;;;;0.10;0.10;;;;;;;16.62;69.79;99565.00;4793717;29;20466;-75
2021/07/05 00:23:21;;;;;;;0.10;0.10;;;;;;;16.61;69.52;99566.91;4818842;29;20026;-73
2021/07/05 00:25:47;;;;;;;0.10;0.10;;;;;;;16.58;69.73;99566.44;4819106;29;20047;-75
2021/07/05 00:28:13;;;;;;;0.10;0.10;;;;;;;16.54;69.76;99571.44;4819760;29;20085;-75
2021/07/05 00:30:39;;;;;;;0.10;0.10;;;;;;;16.50;69.90;99570.13;4790618;30;20043;-74
2021/07/05 00:33:05;;;;;;;0.10;0.10;;;;;;;16.48;69.71;99571.34;4795483;29;20396;-74
2021/07/05 00:35:31;;;;;;;0.10;0.10;;;;;;;16.47;69.58;99565.06;4802717;29;20043;-75
2021/07/05 00:37:58;;;;;;;0.10;0.10;;;;;;;16.49;69.51;99556.66;4797983;29;20148;-75
2021/07/05 00:40:25;;;;;;;0.10;0.10;;;;;;;16.46;69.72;99557.91;4799340;29;20130;-74
2021/07/05 00:42:52;;;;;;;0.15;0.15;;;;;;;16.47;69.45;99548.69;4815751;29;20047;-75
2021/07/05 00:45:19;;;;;;;0.10;0.10;;;;;;;16.47;69.29;99562.31;4800385;29;20043;-75
2021/07/05 00:47:45;;;;;;;0.10;0.10;;;;;;;16.48;69.84;99558.53;4801562;29;20416;-75
2021/07/05 00:50:12;;;;;;;0.20;0.20;;;;;;;16.49;68.88;99562.13;4798285;29;20545;-75
2021/07/05 00:52:41;;;;;;;0.10;0.10;;;;;;;16.54;68.77;99565.97;4795207;29;20039;-75
2021/07/05 00:55:09;;;;;;;0.10;0.10;;;;;;;16.50;68.93;99559.22;4797951;29;20051;-76
2021/07/05 00:57:35;;;;;;;0.10;0.10;;;;;;;16.54;68.61;99565.97;4783598;29;20074;-75
2021/07/05 01:00:02;;;;;;;0.10;0.10;;;;;;;16.54;68.89;99571.44;4797512;29;20118;-76
2021/07/05 01:02:28;;;;;;;0.10;0.10;;;;;;;16.56;68.75;99577.56;4799728;29;20046;-74
2021/07/05 01:04:54;;;;;;;0.10;0.10;;;;;;;16.59;68.34;99574.41;4798794;29;20035;-75
2021/07/05 01:07:21;;;;;;;0.10;0.10;;;;;;;16.61;68.41;99572.34;4799261;29;20180;-74
2021/07/05 01:09:48;;;;;;;0.10;0.10;;;;;;;16.62;68.31;99574.03;4796724;29;20122;-74
2021/07/05 01:12:14;;;;;;;0.10;0.10;;;;;;;16.61;68.25;99577.81;4798167;29;20047;-73
2021/07/05 01:14:41;;;;;;;0.10;0.10;;;;;;;16.62;68.07;99579.50;4800945;29;20184;-75
2021/07/05 01:17:13;;;;;;;0.10;0.10;;;;;;;16.60;67.94;99578.88;4783806;29;20051;-75
2021/07/05 01:19:42;;;;;;;0.10;0.10;;;;;;;16.58;67.91;99567.28;4798737;29;20047;-75
2021/07/05 01:22:08;;;;;;;0.10;0.10;;;;;;;16.56;67.81;99569.38;4799743;29;20399;-75
2021/07/05 01:24:34;;;;;;;0.10;0.10;;;;;;;16.55;67.92;99572.28;4800897;29;20062;-76
2021/07/05 01:27:00;;;;;;;0.10;0.10;;;;;;;16.51;68.01;99569.09;4784557;29;20439;-74
2021/07/05 01:29:26;;;;;;;0.10;0.10;;;;;;;16.49;68.10;99568.44;4799393;29;20038;-75
2021/07/05 01:31:52;;;;;;;0.20;0.20;;;;;;;16.44;68.07;99572.78;4783674;29;20141;-76
2021/07/05 01:34:18;;;;;;;0.20;0.20;;;;;;;16.44;67.81;99576.34;4799647;29;20042;-74
2021/07/05 01:36:44;;;;;;;0.10;0.10;;;;;;;16.43;68.18;99569.19;4769144;29;20055;-74
2021/07/05 01:39:11;;;;;;;0.10;0.10;;;;;;;16.41;67.97;99568.53;4798366;29;20097;-75
2021/07/05 01:41:36;;;;;;;0.10;0.10;;;;;;;16.38;67.92;99577.09;4783927;29;20053;-77
2021/07/05 01:44:03;;;;;;;0.10;0.10;;;;;;;16.41;67.75;99582.19;4799386;29;20046;-75
2021/07/05 01:46:29;;;;;;;0.15;0.15;;;;;;;16.42;67.49;99583.03;4799504;29;20108;-73
2021/07/05 01:48:55;;;;;;;0.20;0.20;;;;;;;16.44;67.11;99587.25;4799399;29;20039;-75
2021/07/05 01:51:21;;;;;;;0.10;0.10;;;;;;;16.45;66.94;99582.63;4799719;29;20055;-74
2021/07/05 01:53:46;;;;;;;0.15;0.15;;;;;;;16.45;66.77;99594.41;4795149;29;20050;-75
2021/07/05 01:56:12;;;;;;;0.10;0.10;;;;;;;16.46;66.79;99590.66;4800093;29;20106;-74
2021/07/05 01:58:38;;;;;;;0.10;0.10;;;;;;;16.49;66.27;99589.41;4813902;29;20047;-73
2021/07/05 02:01:05;;;;;;;0.10;0.10;;;;;;;16.46;66.49;99585.19;4784379;29;20057;-74
2021/07/05 02:03:31;;;;;;;0.20;0.20;;;;;;;16.46;65.68;99590.66;4797435;29;20150;-75
2021/07/05 02:05:57;;;;;;;0.10;0.10;;;;;;;16.45;65.89;99599.00;4797498;29;20142;-75
2021/07/05 02:08:23;;;;;;;0.10;0.10;;;;;;;16.46;65.80;99596.13;4797441;29;20087;-76
2021/07/05 02:10:51;;;;;;;0.10;0.10;;;;;;;16.45;65.69;99594.41;4798648;29;20485;-75
2021/07/05 02:13:19;;;;;;;0.10;0.10;;;;;;;16.45;65.56;99599.84;4798812;29;20070;-74
2021/07/05 02:15:46;;;;;;;0.10;0.10;;;;;;;16.42;65.44;99600.25;4783976;29;20058;-73
2021/07/05 02:18:12;;;;;;;0.10;0.10;;;;;;;16.46;65.34;99600.72;4767632;29;20462;-75
2021/07/05 02:20:39;;;;;;;0.10;0.10;;;;;;;16.42;65.37;99604.84;4798487;29;20511;-75
2021/07/05 02:23:07;;;;;;;0.10;0.10;;;;;;;16.40;65.36;99600.44;4797505;29;20047;-73
2021/07/05 02:25:33;;;;;;;0.20;0.20;;;;;;;16.42;65.43;99600.25;4796624;29;20072;-75
2021/07/05 02:28:03;;;;;;;0.10;0.10;;;;;;;16.43;65.05;99606.56;4797547;29;20168;-75
2021/07/05 02:30:30;;;;;;;0.20;0.20;;;;;;;16.48;65.27;99604.94;4800209;29;20046;-75
2021/07/05 02:32:56;;;;;;;0.20;0.20;;;;;;;16.44;65.21;99614.53;4798396;29;20035;-74
2021/07/05 02:35:25;;;;;;;0.10;0.10;;;;;;;16.48;65.13;99610.41;4784331;29;20597;-74
2021/07/05 02:37:52;;;;;;;0.10;0.10;;;;;;;16.54;64.80;99619.72;4783253;29;20145;-73
2021/07/05 02:40:23;;;;;;;0.10;0.10;;;;;;;16.57;65.00;99617.47;4782975;29;20071;-74
2021/07/05 02:42:50;;;;;;;0.28;0.17;;;;;;;16.61;65.01;99618.75;4784915;29;20043;-74
2021/07/05 02:45:24;;;;;;;0.10;0.10;;;;;;;16.64;64.70;99615.66;4800643;29;20051;-74
2021/07/05 02:47:52;;;;;;;0.10;0.10;;;;;;;16.68;64.47;99618.00;4800343;29;20043;-74
2021/07/05 02:50:19;;;;;;;0.10;0.10;;;;;;;16.75;64.05;99616.22;4815747;29;20177;-74
2021/07/05 02:52:45;;;;;;;0.13;0.13;;;;;;;16.81;64.20;99620.91;4816249;29;20100;-74
2021/07/05 02:55:11;;;;;;;0.10;0.10;;;;;;;16.83;63.92;99619.69;4817759;29;20059;-75
2021/07/05 02:57:38;;;;;;;0.20;0.20;;;;;;;16.88;63.91;99617.22;4801837;29;20051;-74
2021/07/05 03:00:15;;;;;;;0.20;0.20;;;;;;;17.07;63.54;99621.19;4818996;29;20058;-75
2021/07/05 03:02:42;;;;;;;0.20;0.20;;;;;;;17.25;62.73;99622.63;4818239;29;20074;-73
2021/07/05 03:05:10;;;;;;;0.20;0.20;;;;;;;17.34;62.58;99629.69;4818225;29;20042;-74
2021/07/05 03:07:36;;;;;;;0.20;0.20;;;;;;;17.46;62.42;99635.47;4819397;29;20103;-75
2021/07/05 03:10:07;;;;;;;0.20;0.20;;;;;;;17.76;62.00;99631.53;4818408;29;20177;-75
2021/07/05 03:12:33;;;;;;;0.20;0.20;;;;;;;17.80;61.27;99631.97;4799927;29;20035;-75
2021/07/05 03:15:00;;;;;;;0.20;0.20;;;;;;;17.83;61.54;99626.13;4798056;29;20039;-74
2021/07/05 03:17:25;;;;;;;0.20;0.20;;;;;;;17.92;60.98;99635.03;4813684;29;20091;-75
2021/07/05 03:19:51;;;;;;;0.20;0.20;;;;;;;18.07;60.54;99633.03;4799161;29;20070;-75
2021/07/05 03:22:18;;;;;;;0.20;0.20;;;;;;;18.16;60.02;99636.44;4794770;29;20425;-77
2021/07/05 03:24:44;;;;;;;0.20;0.20;;;;;;;18.27;59.46;99639.47;4799193;29;20035;-76
2021/07/05 03:27:11;;;;;;;0.20;0.20;;;;;;;18.30;59.80;99638.22;4801412;29;20494;-76
2021/07/05 03:29:37;;;;;;;0.20;0.20;;;;;;;18.41;59.18;99645.03;4804990;29;20043;-77
2021/07/05 03:32:04;;;;;;;0.20;0.20;;;;;;;18.64;59.40;99633.75;4787046;29;20066;-76
2021/07/05 03:34:30;;;;;;;0.20;0.20;;;;;;;18.82;58.00;99636.81;4786432;29;20046;-75
2021/07/05 03:36:56;;;;;;;0.20;0.20;;;;;;;18.88;57.87;99636.00;4788447;29;20077;-74
2021/07/05 03:39:22;;;;;;;0.20;0.20;;;;;;;18.95;57.90;99625.91;4798784;29;20075;-75
2021/07/05 03:41:48;;;;;;;0.20;0.20;;;;;;;19.26;56.93;99621.75;4801808;29;20043;-75
2021/07/05 03:44:14;;;;;;;0.20;0.20;;;;;;;19.32;56.34;99631.91;4801373;29;20074;-75
2021/07/05 03:46:40;;;;;;;0.20;0.20;;;;;;;19.51;55.54;99633.81;4802648;29;20070;-77
2021/07/05 03:49:06;;;;;;;0.20;0.20;;;;;;;19.82;54.79;99632.38;4801538;29;20185;-75
2021/07/05 03:51:33;;;;;;;0.20;0.20;;;;;;;20.02;54.52;99647.97;4801377;29;20035;-78
2021/07/05 03:53:59;;;;;;;0.20;0.20;;;;;;;20.20;54.26;99659.16;4800841;29;20452;-76
2021/07/05 03:56:25;;;;;;;0.20;0.20;;;;;;;20.32;53.75;99654.69;4802586;29;20493;-74
2021/07/05 03:58:51;;;;;;;0.20;0.20;;;;;;;20.53;53.44;99652.78;4801518;29;20536;-77
2021/07/05 04:01:17;;;;;;;0.20;0.20;;;;;;;20.65;52.94;99648.28;4803083;29;20047;-78
2021/07/05 04:03:42;;;;;;;0.22;0.22;;;;;;;20.46;53.04;99650.84;4785484;29;20485;-76
2021/07/05 04:06:08;;;;;;;0.20;0.20;;;;;;;20.51;52.95;99663.13;4801396;29;20416;-76
2021/07/05 04:08:35;;;;;;;0.30;0.30;;;;;;;20.90;52.46;99651.97;4783772;29;20043;-78
2021/07/05 04:11:03;;;;;;;0.20;0.20;;;;;;;21.30;52.21;99657.28;4800682;29;20262;-76
2021/07/05 04:13:29;;;;;;;0.30;0.30;;;;;;;21.54;50.93;99652.91;4801783;29;20072;-76
2021/07/05 04:15:56;;;;;;;0.20;0.20;;;;;;;21.57;50.69;99652.47;4800549;29;20078;-75
2021/07/05 04:18:22;;;;;;;0.20;0.20;;;;;;;21.78;50.58;99665.00;4799162;29;20043;-77
2021/07/05 04:20:50;;;;;;;0.25;0.25;;;;;;;21.76;49.52;99656.16;4800529;29;20265;-75
2021/07/05 04:23:16;;;;;;;0.40;0.40;;;;;;;22.16;49.28;99658.56;4803780;29;20372;-76
2021/07/05 04:25:42;;;;;;;0.30;0.30;;;;;;;22.54;48.17;99665.81;4800115;29;20047;-78
2021/07/05 04:28:09;;;;;;;0.20;0.20;;;;;;;22.77;48.21;99668.69;4800483;29;20513;-75
2021/07/05 04:30:36;;;;;;;0.30;0.30;;;;;;;22.89;47.61;99655.00;4799728;29;20142;-78
2021/07/05 04:33:03;;;;;;;0.30;0.30;;;;;;;23.12;46.58;99658.97;4800527;29;20445;-78
2021/07/05 04:35:29;;;;;;;0.30;0.30;;;;;;;23.26;46.82;99650.28;4796040;29;20054;-77
2021/07/05 04:37:58;;;;;;;0.30;0.30;;;;;;;23.40;46.13;99655.59;4795498;29;20057;-77
2021/07/05 04:40:29;;;;;;;0.30;0.30;;;;;;;23.68;45.97;99653.06;4801529;29;20035;-76
2021/07/05 04:42:55;;;;;;;0.40;0.40;;;;;;;23.84;44.97;99648.78;4815116;29;20057;-76
2021/07/05 04:45:24;;;;;;;0.40;0.40;;;;;;;24.12;44.95;99648.06;4798960;29;20050;-76
2021/07/05 04:47:50;;;;;;;0.40;0.40;;;;;;;24.10;43.77;99655.78;4802026;29;20058;-77
2021/07/05 04:50:17;;;;;;;0.40;0.40;;;;;;;24.46;43.22;99640.03;4800451;29;20412;-76
2021/07/05 04:52:43;;;;;;;0.40;0.40;;;;;;;24.59;43.05;99652.78;4799948;29;20039;-76
2021/07/05 04:55:11;;;;;;;0.40;0.40;;;;;;;24.48;42.77;99657.22;4799466;29;20501;-75
2021/07/05 04:57:39;;;;;;;0.40;0.40;;;;;;;24.43;42.46;99655.19;4800018;29;20054;-76
2021/07/05 05:00:09;;;;;;;0.40;0.40;;;;;;;25.01;41.49;99656.13;4800643;29;20143;-77
2021/07/05 05:02:35;;;;;;;0.40;0.40;;;;;;;25.08;41.66;99651.28;4784956;29;20195;-78
2021/07/05 05:05:03;;;;;;;0.40;0.40;;;;;;;25.24;41.85;99653.31;4798690;29;20143;-78
2021/07/05 05:07:29;;;;;;;0.40;0.40;;;;;;;25.28;40.63;99639.00;4793388;29;20115;-78
2021/07/05 05:10:00;;;;;;;0.50;0.50;;;;;;;25.55;40.41;99640.03;4807230;29;20045;-78
2021/07/05 05:12:27;;;;;;;0.43;0.43;;;;;;;25.73;39.60;99650.88;4792334;29;20482;-79
2021/07/05 05:14:53;;;;;;;0.47;0.47;;;;;;;26.15;39.41;99650.50;4788898;29;20079;-80
2021/07/05 05:17:20;;;;;;;0.43;0.43;;;;;;;26.20;39.21;99647.78;4791689;29;20059;-79
2021/07/05 05:19:46;;;;;;;0.50;0.50;;;;;;;26.16;37.83;99649.41;4764539;29;20042;-80
2021/07/05 05:22:12;;;;;;;0.50;0.50;;;;;;;26.34;37.36;99647.47;4799363;29;20055;-79
2021/07/05 05:24:38;;;;;;;0.50;0.50;;;;;;;26.24;37.81;99658.38;4801295;29;20429;-80
2021/07/05 05:27:04;;;;;;;0.50;0.50;;;;;;;26.72;37.71;99648.56;4799526;29;20498;-77
2021/07/05 05:29:30;;;;;;;0.50;0.50;;;;;;;27.07;36.12;99657.34;4796961;29;20059;-77
2021/07/05 05:31:56;;;;;;;0.60;0.60;;;;;;;27.46;35.79;99637.81;4803337;29;20747;-75
2021/07/05 05:34:22;;;;;;;0.50;0.50;;;;;;;27.59;35.52;99640.13;4790333;29;20137;-75
2021/07/05 05:36:48;;;;;;;0.50;0.50;;;;;;;28.07;35.04;99643.91;4798217;29;20084;-76
2021/07/05 05:39:14;;;;;;;0.55;0.55;;;;;;;28.09;34.34;99647.28;4797993;29;20098;-77
2021/07/05 05:41:40;;;;;;;0.55;0.55;;;;;;;28.24;34.14;99656.81;4763778;29;20150;-75
2021/07/05 05:44:06;;;;;;;0.70;0.70;;;;;;;28.72;33.09;99650.19;4797322;29;20057;-74
2021/07/05 05:46:33;;;;;;;0.60;0.60;;;;;;;28.95;33.04;99654.44;4796453;29;20482;-77
2021/07/05 05:49:01;;;;;;;0.60;0.60;;;;;;;29.08;32.82;99651.19;4782961;29;20537;-78
2021/07/05 05:51:32;;;;;;;0.60;0.60;;;;;;;28.30;34.37;99648.25;4781564;29;20190;-76
2021/07/05 05:54:02;;;;;;;0.60;0.60;;;;;;;28.90;32.33;99650.81;4798261;29;20473;-78
2021/07/05 05:56:31;;;;;;;0.60;0.60;;;;;;;29.35;30.91;99652.94;4798581;29;20507;-75
2021/07/05 05:59:00;;;;;;;0.60;0.60;;;;;;;29.36;31.02;99662.97;4797912;29;20078;-75
2021/07/05 06:01:28;;;;;;;0.60;0.60;;;;;;;29.52;31.13;99645.19;4795000;29;20141;-74
2021/07/05 06:03:54;;;;;;;0.80;0.80;;;;;;;29.68;30.89;99662.78;4796088;29;20130;-73
2021/07/05 06:06:20;;;;;;;0.70;0.70;;;;;;;29.88;31.11;99655.56;4798043;29;20409;-74
2021/07/05 06:08:46;;;;;;;0.70;0.70;;;;;;;30.14;30.08;99650.81;4798042;29;20185;-76
2021/07/05 06:11:12;;;;;;;0.60;0.60;;;;;;;30.55;29.25;99647.97;4795682;29;20107;-75
2021/07/05 06:13:38;;;;;;;0.70;0.70;;;;;;;30.58;27.75;99647.41;4796689;29;20043;-81
2021/07/05 06:16:04;;;;;;;0.70;0.70;;;;;;;30.62;27.65;99660.50;4782312;29;20069;-80
2021/07/05 06:18:30;;;;;;;0.70;0.70;;;;;;;30.21;28.38;99649.44;4799460;29;20111;-79
2021/07/05 06:20:56;;;;;;;0.85;0.85;;;;;;;30.36;28.62;99654.16;4797104;29;20775;-80
2021/07/05 06:23:28;;;;;;;0.60;0.60;;;;;;;30.40;28.68;99649.69;4781857;29;20046;-77
2021/07/05 06:25:55;;;;;;;0.77;0.77;;;;;;;31.22;27.76;99657.78;4796711;29;20058;-78
2021/07/05 06:28:22;;;;;;;0.77;0.77;;;;;;;31.19;28.03;99658.34;4795854;29;20079;-81
2021/07/05 06:30:49;;;;;;;0.70;0.70;;;;;;;31.53;27.49;99652.03;4795752;29;20047;-80
2021/07/05 06:33:16;;;;;;;0.70;0.70;;;;;;;31.86;26.48;99651.25;4799268;29;20494;-79
2021/07/05 06:35:43;;;;;;;0.70;0.70;;;;;;;32.27;26.02;99650.88;4808222;29;20139;-79
2021/07/05 06:38:10;;;;;;;0.77;0.77;;;;;;;32.73;25.23;99647.63;4815005;29;20502;-79
2021/07/05 06:40:37;;;;;;;0.80;0.80;;;;;;;32.19;25.86;99643.13;4768066;29;20631;-80
2021/07/05 06:43:03;;;;;;;0.80;0.80;;;;;;;32.76;25.52;99647.00;4797960;29;20099;-80
2021/07/05 06:45:30;;;;;;;0.85;0.85;;;;;;;33.16;24.72;99655.25;4783153;29;20051;-78
2021/07/05 06:47:57;;;;;;;0.80;0.80;;;;;;;33.05;25.44;99654.53;4796810;29;20104;-80
2021/07/05 06:50:23;;;;;;;0.70;0.70;;;;;;;33.02;24.98;99655.13;4797584;29;20047;-79
2021/07/05 06:52:50;;;;;;;0.80;0.80;;;;;;;33.41;24.93;99651.25;4797245;29;20594;-79
2021/07/05 06:55:16;;;;;;;0.80;0.80;;;;;;;33.63;24.51;99659.91;4796828;29;20074;-79
2021/07/05 06:57:42;;;;;;;0.85;0.85;;;;;;;33.53;25.24;99660.06;4796895;29;20070;-79
2021/07/05 07:00:11;;;;;;;0.80;0.80;;;;;;;33.58;25.16;99651.59;4798726;29;20046;-79
2021/07/05 07:02:38;;;;;;;0.80;0.80;;;;;;;34.02;24.67;99639.94;4798960;29;20039;-77
2021/07/05 07:05:12;;;;;;;0.80;0.80;;;;;;;33.36;25.84;99646.56;4785603;29;20047;-82
2021/07/05 07:07:39;;;;;;;0.90;0.90;;;;;;;33.90;25.27;99648.00;4785973;29;20398;-81
2021/07/05 07:10:06;;;;;;;0.80;0.80;;;;;;;34.11;24.58;99642.88;4770580;29;20039;-82
2021/07/05 07:12:37;;;;;;;0.82;0.82;;;;;;;33.69;25.65;99653.09;4784069;29;20043;-81
2021/07/05 07:15:07;;;;;;;0.88;0.88;;;;;;;33.33;25.90;99653.59;4786933;29;20066;-83
2021/07/05 07:18:01;;;;;;;1.27;1.00;;;;;;;33.22;26.33;99651.25;4799111;29;20047;-82
2021/07/05 07:20:20;;;;;;;0.82;0.82;;;;;;;33.35;26.35;99654.13;4771050;29;20155;-83
2021/07/05 07:22:47;;;;;;;0.90;0.90;;;;;;;33.83;25.18;99651.19;4787916;29;20043;-82
2021/07/05 07:25:14;;;;;;;0.90;0.90;;;;;;;34.00;24.82;99647.00;4799838;29;20051;-83
2021/07/05 07:27:42;;;;;;;0.90;0.90;;;;;;;33.94;25.71;99645.41;4801922;29;20503;-84
2021/07/05 07:30:10;;;;;;;1.00;1.00;;;;;;;34.13;23.94;99654.63;4765728;29;20067;-81
2021/07/05 07:32:36;;;;;;;1.00;1.00;;;;;;;34.48;24.43;99652.28;4784915;29;20043;-81
2021/07/05 07:35:03;;;;;;;1.10;1.10;;;;;;;34.70;25.17;99658.09;4801969;29;20082;-83
2021/07/05 07:37:31;;;;;;;1.00;1.00;;;;;;;34.38;24.67;99663.75;4799150;29;20138;-82
2021/07/05 07:40:00;;;;;;;1.05;1.05;;;;;;;35.03;24.43;99660.78;4784019;29;20042;-84
2021/07/05 07:42:26;;;;;;;1.10;1.10;;;;;;;35.12;24.22;99672.97;4799971;29;20234;-83
2021/07/05 07:44:52;;;;;;;1.10;1.10;;;;;;;35.60;23.66;99666.88;4802664;29;20586;-82
2021/07/05 07:47:18;;;;;;;1.10;1.10;;;;;;;35.53;23.44;99662.81;4801540;29;20516;-82
2021/07/05 07:49:45;;;;;;;1.00;1.00;;;;;;;36.02;23.77;99661.94;4801953;29;20533;-80
2021/07/05 07:52:11;;;;;;;0.80;0.80;;;;;;;36.73;23.12;99655.56;4786276;29;20698;-82
2021/07/05 07:54:37;;;;;;;1.10;1.10;;;;;;;36.06;22.91;99668.59;4788497;29;20406;-83
2021/07/05 07:57:04;;;;;;;1.20;1.20;;;;;;;36.03;23.31;99652.34;4801332;29;20058;-82
2021/07/05 07:59:30;;;;;;;1.20;1.20;;;;;;;35.89;23.25;99662.81;4786944;29;20074;-80
2021/07/05 08:01:56;;;;;;;2.58;1.63;;;;;;;36.46;23.27;99646.13;4774716;29;20053;-83
2021/07/05 08:04:22;;;;;;;1.10;1.10;;;;;;;36.93;22.82;99647.34;4817533;29;20054;-80
2021/07/05 08:06:48;;;;;;;1.10;1.10;;;;;;;36.94;22.40;99659.44;4798999;29;20046;-81
2021/07/05 08:09:14;;;;;;;1.30;1.30;;;;;;;36.76;22.47;99652.09;4798645;29;20043;-81
2021/07/05 08:11:40;;;;;;;1.20;1.20;;;;;;;36.96;23.44;99657.16;4800841;29;20501;-81
2021/07/05 08:14:07;;;;;;;1.20;1.20;;;;;;;37.28;22.64;99657.91;4796067;29;20053;-80
2021/07/05 08:16:33;;;;;;;0.10;0.10;;;;;;;35.74;24.21;99664.84;4804092;29;20139;-83
2021/07/05 08:18:59;;;;;;;1.40;1.40;;;;;;;36.34;23.35;99651.53;4803724;29;20098;-82
2021/07/05 08:21:26;;;;;;;1.30;1.30;;;;;;;37.00;23.16;99646.88;4807552;29;20220;-83
2021/07/05 08:23:52;;;;;;;1.40;1.40;;;;;;;37.41;21.62;99652.13;4806119;29;20042;-81
2021/07/05 08:26:19;;;;;;;0.10;0.10;;;;;;;37.43;22.41;99649.00;4808097;29;20054;-85
2021/07/05 08:28:45;;;;;;;0.10;0.10;;;;;;;35.40;23.31;99650.47;4806386;29;20187;-81
2021/07/05 08:31:11;;;;;;;0.20;0.20;;;;;;;33.83;25.35;99654.00;4803089;29;20372;-83
2021/07/05 08:33:38;;;;;;;1.40;1.40;;;;;;;35.49;24.29;99665.41;4805526;29;20046;-82
2021/07/05 08:36:05;;;;;;;0.47;0.47;;;;;;;35.86;23.90;99658.63;4803707;29;20370;-84
2021/07/05 08:38:31;;;;;;;0.00;0.00;;;;;;;35.22;24.49;99650.28;4807484;29;20043;-83
2021/07/05 08:40:59;;;;;;;1.40;1.40;;;;;;;35.49;24.24;99648.53;4806107;29;20050;-83
2021/07/05 08:43:27;;;;;;;1.27;1.27;;;;;;;36.84;22.92;99645.66;4804111;29;20042;-84
2021/07/05 08:45:58;;;;;;;1.30;1.20;;;;;;;36.79;22.94;99635.38;4814955;29;20046;-81
2021/07/05 08:48:27;;;;;;;1.38;1.38;;;;;;;37.10;22.50;99640.94;4802123;29;20135;-83
2021/07/05 08:50:53;;;;;;;1.23;1.23;;;;;;;36.84;22.75;99631.56;4802842;29;20047;-82
2021/07/05 08:53:19;;;;;;;1.20;1.20;;;;;;;37.88;21.51;99643.00;4804628;29;20242;-81
2021/07/05 08:55:46;;;;;;;1.40;1.40;;;;;;;38.42;20.63;99639.78;4797658;29;20039;-81
2021/07/05 08:58:12;;;;;;;1.10;1.10;;;;;;;38.16;20.59;99629.38;4799139;29;20031;-80
2021/07/05 09:00:39;;;;;;;1.25;1.25;;;;;;;37.43;22.54;99637.69;4800689;29;20055;-80
2021/07/05 09:03:05;;;;;;;1.20;1.20;;;;;;;37.25;22.72;99630.34;4782563;29;20357;-82
2021/07/05 09:05:37;;;;;;;1.10;1.10;;;;;;;36.79;23.26;99634.53;4799093;29;20071;-82
2021/07/05 09:08:20;;;;;;;1.20;1.20;;;;;;;36.53;23.39;99626.81;4798377;29;20077;-83
2021/07/05 09:10:52;;;;;;;1.20;1.20;;;;;;;37.42;22.84;99644.50;4798702;29;20047;-82
2021/07/05 09:13:20;;;;;;;1.10;1.10;;;;;;;37.33;22.32;99643.63;4784867;29;20280;-81
2021/07/05 09:15:50;;;;;;;1.10;1.10;;;;;;;36.39;23.53;99637.31;4800610;29;20055;-82
2021/07/05 09:18:25;;;;;;;1.00;1.00;;;;;;;36.13;23.76;99643.63;4799650;29;20070;-80
2021/07/05 09:20:52;;;;;;;1.40;1.40;;;;;;;36.72;23.29;99635.00;4800344;29;20153;-83
2021/07/05 09:23:19;;;;;;;1.20;1.20;;;;;;;37.53;22.68;99636.56;4762722;29;20040;-80
2021/07/05 09:25:47;;;;;;;1.33;1.33;;;;;;;38.06;21.96;99636.19;4786570;29;20051;-80
2021/07/05 09:28:18;;;;;;;0.40;0.40;;;;;;;36.06;23.86;99634.81;4790705;29;20066;-81
2021/07/05 09:30:46;;;;;;;1.10;1.10;;;;;;;35.66;24.61;99647.91;4790372;29;20047;-79
2021/07/05 09:33:18;;;;;;;1.10;1.10;;;;;;;35.83;23.89;99641.56;4788293;29;20046;-79
2021/07/05 09:35:46;;;;;;;1.23;1.23;;;;;;;36.73;24.05;99636.66;4787778;29;20051;-82
2021/07/05 09:38:12;;;;;;;0.10;0.10;;;;;;;35.89;25.67;99645.91;4787694;29;20049;-81
2021/07/05 09:40:39;;;;;;;1.20;1.20;;;;;;;36.24;24.67;99630.13;4796921;29;20067;-83
2021/07/05 09:43:24;;;;;;;0.13;0.13;;;;;;;34.96;25.44;99635.91;4799098;29;20530;-82
2021/07/05 09:45:59;;;;;;;0.10;0.10;;;;;;;33.91;27.09;99627.22;4790464;29;20070;-80
2021/07/05 09:48:25;;;;;;;0.10;0.10;;;;;;;33.35;27.16;99626.09;4764817;29;20042;-78
2021/07/05 09:51:02;;;;;;;0.10;0.10;;;;;;;33.72;26.51;99627.25;4790673;29;20070;-80
2021/07/05 09:53:34;;;;;;;0.13;0.13;;;;;;;32.53;27.35;99628.25;4790428;29;20146;-76
2021/07/05 09:56:28;;;;;;;0.32;0.32;;;;;;;32.38;28.00;99618.03;4791187;29;20050;-80
2021/07/05 09:58:56;;;;;;;0.40;0.40;;;;;;;32.54;27.95;99618.72;4797557;29;20118;-80
2021/07/05 10:01:36;;;;;;;0.10;0.10;;;;;;;31.48;29.88;99605.38;4798547;29;20050;-79
2021/07/05 10:04:08;;;;;;;1.08;1.08;;;;;;;31.84;29.42;99627.47;4782370;29;20078;-81
2021/07/05 10:06:46;;;;;;;1.10;1.10;;;;;;;33.41;26.20;99617.59;4793494;29;20038;-80
2021/07/05 10:09:16;;;;;;;0.90;0.90;;;;;;;34.10;25.51;99618.75;4796470;29;20047;-79
2021/07/05 10:11:42;;;;;;;1.00;1.00;;;;;;;34.61;25.20;99623.44;4796682;29;20042;-80
2021/07/05 10:14:22;;;;;;;1.00;1.00;;;;;;;35.01;24.85;99615.34;4798280;29;20049;-80
2021/07/05 10:16:49;;;;;;;0.90;0.90;;;;;;;35.32;24.46;99626.69;4797497;29;20043;-81
2021/07/05 10:19:16;;;;;;;1.40;1.30;;;;;;;35.41;23.88;99624.00;4752850;29;20039;-80
2021/07/05 10:21:43;;;;;;;0.90;0.90;;;;;;;35.20;24.15;99635.69;4798071;29;20102;-79
2021/07/05 10:24:12;;;;;;;1.00;1.00;;;;;;;35.47;23.72;99628.31;4798127;29;20134;-80
2021/07/05 10:26:39;;;;;;;1.00;1.00;;;;;;;35.65;22.80;99630.19;4798625;29;20134;-81
2021/07/05 10:29:06;;;;;;;1.00;1.00;;;;;;;35.93;22.90;99630.06;4794711;29;20039;-79
2021/07/05 10:31:35;;;;;;;1.02;1.02;;;;;;;37.09;22.21;99627.19;4796483;29;20043;-80
2021/07/05 10:34:06;;;;;;;0.10;0.10;;;;;;;35.55;23.98;99624.81;4785061;29;20046;-78
2021/07/05 10:36:35;;;;;;;0.10;0.10;;;;;;;33.84;25.85;99616.38;4786943;29;20047;-81
2021/07/05 10:39:03;;;;;;;1.02;1.02;;;;;;;35.57;23.82;99633.75;4786696;29;20046;-80
2021/07/05 10:41:35;;;;;;;0.95;0.95;;;;;;;35.44;23.31;99629.81;4800960;29;20405;-80
2021/07/05 10:44:04;;;;;;;1.30;1.02;;;;;;;35.28;22.86;99626.50;4802874;29;20061;-81
2021/07/05 10:46:54;;;;;;;1.10;1.10;;;;;;;35.17;23.30;99625.06;4801053;29;20051;-81
2021/07/05 10:49:32;;;;;;;0.30;0.10;;;;;;;33.69;25.85;99625.03;4801845;29;20106;-83
2021/07/05 10:52:12;;;;;;;0.10;0.10;;;;;;;32.77;27.14;99623.50;4800259;29;20135;-81
2021/07/05 10:54:57;;;;;;;1.10;1.10;;;;;;;33.20;26.07;99631.06;4786240;29;20050;-80
2021/07/05 10:57:46;;;;;;;1.10;1.10;;;;;;;33.06;26.40;99622.59;4771162;29;20114;-81
2021/07/05 11:00:21;;;;;;;1.20;1.20;;;;;;;34.82;24.46;99628.66;4797414;29;20063;-81
2021/07/05 11:03:01;;;;;;;0.20;0.20;;;;;;;34.15;24.84;99621.47;4799849;29;20043;-80
2021/07/05 11:05:45;;;;;;;0.10;0.10;;;;;;;32.29;27.09;99631.84;4798343;29;20082;-83
2021/07/05 11:08:36;;;;;;;1.40;1.38;;;;;;;33.29;26.46;99626.47;4799776;29;20077;-77
2021/07/05 11:11:30;;;;;;;1.20;1.20;;;;;;;34.17;24.73;99619.19;4799979;29;20073;-80
2021/07/05 11:14:16;;;;;;;1.10;1.10;;;;;;;35.45;23.36;99631.47;4800481;29;20062;-79
2021/07/05 11:17:14;;;;;;;1.00;1.00;;;;;;;35.98;23.13;99618.66;4800994;29;20050;-81
2021/07/05 11:19:55;;;;;;;0.90;0.90;;;;;;;36.19;22.00;99600.09;4814216;29;20074;-80
2021/07/05 11:22:27;;;;;;;1.00;1.00;;;;;;;36.68;21.95;99603.84;4800045;29;20042;-81
2021/07/05 11:24:54;;;;;;;;;;;;;;;35.57;24.10;99601.97;4800002;29;20039;-77
2021/07/05 11:27:48;;;;;;;0.10;0.10;;;;;;;34.02;24.71;99605.44;4799313;29;19975;-80
2021/07/05 11:30:18;;;;;;;0.20;0.10;;;;;;;32.95;26.46;99607.91;4797319;29;20545;-80
2021/07/05 11:32:47;;;;;;;1.10;1.10;;;;;;;33.41;25.45;99606.41;4792429;29;20058;-81
2021/07/05 11:35:44;;;;;;;1.10;1.10;;;;;;;34.86;24.10;99601.59;4797597;29;20038;-80
2021/07/05 11:38:50;;;;;;;0.65;0.65;;;;;;;35.32;23.14;99601.41;4798093;29;20055;-81
2021/07/05 11:41:24;;;;;;;0.10;0.10;;;;;;;32.69;26.11;99586.91;4796439;29;20574;-78